Time;durP1;ratioP1;P1;durP2;ratioP2;P2;SDS_P1;SDS_P2;PMS_P1;PMS_P2;Temp;Humidity;BMP_temperature;BMP_pressure;BME280_temperature;BME280_humidity;BME280_pressure;Samples;Min_cycle;Max_cycle;Signal;HPM_P1;HPM_P2
2022/11/03 00:00:59;;;;;;;5.55;4.28;;;;;;;15.89;43.13;95423.56;5137152;27;20530;-71
2022/11/03 00:03:26;;;;;;;7.25;4.07;;;;;;;15.91;43.10;95428.75;5136614;27;20218;-71
2022/11/03 00:08:37;;;;;;;8.95;3.90;;;;;;;15.91;42.86;95436.31;5133020;27;20191;-71
2022/11/03 00:11:11;;;;;;;5.28;4.10;;;;;;;15.92;43.30;95432.34;5137792;27;20190;-71
2022/11/03 00:13:40;;;;;;;7.55;4.32;;;;;;;15.91;43.09;95436.31;5137421;27;20237;-71
2022/11/03 00:16:08;;;;;;;6.35;4.07;;;;;;;15.89;43.75;95434.69;5136790;27;20519;-71
2022/11/03 00:18:35;;;;;;;6.40;4.20;;;;;;;15.89;43.75;95440.25;5136860;27;20206;-71
2022/11/03 00:21:04;;;;;;;5.50;3.90;;;;;;;15.89;43.81;95436.69;5136652;27;20202;-71
2022/11/03 00:23:32;;;;;;;5.18;3.50;;;;;;;15.89;44.36;95439.47;5137372;27;20203;-71
2022/11/03 00:26:10;;;;;;;5.95;4.10;;;;;;;15.89;43.85;95442.25;5137036;27;20613;-71
2022/11/03 00:28:37;;;;;;;5.85;4.13;;;;;;;15.90;44.25;95438.25;5137346;27;20194;-72
2022/11/03 00:31:08;;;;;;;5.45;4.18;;;;;;;15.93;44.46;95439.50;5137283;27;20195;-72
2022/11/03 00:33:35;;;;;;;6.57;4.05;;;;;;;15.92;44.90;95443.47;5137405;27;20191;-72
2022/11/03 00:36:02;;;;;;;4.40;4.00;;;;;;;15.91;44.99;95441.88;5137420;27;20183;-71
2022/11/03 00:38:30;;;;;;;5.53;4.15;;;;;;;15.90;44.72;95443.84;5137055;27;20203;-71
2022/11/03 00:40:57;;;;;;;6.80;4.05;;;;;;;15.88;45.27;95444.22;5136323;27;20195;-71
2022/11/03 00:43:26;;;;;;;5.55;3.55;;;;;;;15.86;45.20;95448.56;5137023;27;20209;-71
2022/11/03 00:45:54;;;;;;;6.07;4.50;;;;;;;15.82;45.94;95445.72;5136868;27;20195;-71
2022/11/03 00:48:31;;;;;;;4.70;4.15;;;;;;;15.79;45.78;95442.91;5137155;27;20194;-71
2022/11/03 00:51:09;;;;;;;6.93;4.80;;;;;;;15.75;45.79;95448.41;5135828;27;20622;-71
2022/11/03 00:53:37;;;;;;;6.00;4.80;;;;;;;15.71;45.17;95450.34;5136895;27;20208;-71
2022/11/03 00:56:05;;;;;;;5.55;4.10;;;;;;;15.66;45.47;95447.09;5137113;27;20191;-71
2022/11/03 00:58:33;;;;;;;10.30;5.18;;;;;;;15.62;45.92;95444.25;5136765;27;20252;-71
2022/11/03 01:01:02;;;;;;;6.60;4.80;;;;;;;15.58;45.67;95458.09;5135654;27;20217;-70
2022/11/03 01:03:29;;;;;;;5.72;4.47;;;;;;;15.52;46.02;95447.69;5135682;27;20223;-71
2022/11/03 01:08:58;;;;;;;6.07;4.68;;;;;;;15.45;45.85;95450.34;5135914;27;20190;-71
2022/11/03 01:11:43;;;;;;;6.53;4.32;;;;;;;15.40;45.85;95446.72;5136602;27;20186;-71
2022/11/03 01:14:15;;;;;;;5.90;4.47;;;;;;;15.37;45.96;95441.13;5136548;27;20183;-71
2022/11/03 01:16:42;;;;;;;5.65;4.35;;;;;;;15.37;45.89;95441.13;5135679;27;20202;-71
2022/11/03 01:19:10;;;;;;;8.20;4.68;;;;;;;15.39;45.50;95438.75;5135567;27;20195;-71
2022/11/03 01:21:36;;;;;;;8.07;4.38;;;;;;;15.39;45.76;95441.53;5136181;27;20202;-71
2022/11/03 01:24:04;;;;;;;6.47;4.65;;;;;;;15.39;46.27;95452.63;5136406;27;20218;-71
2022/11/03 01:26:32;;;;;;;6.95;4.53;;;;;;;15.37;45.97;95447.47;5136432;27;20196;-71
2022/11/03 01:29:00;;;;;;;8.43;4.50;;;;;;;15.34;46.07;95448.22;5136318;27;20195;-71
2022/11/03 01:31:29;;;;;;;7.35;4.72;;;;;;;15.34;46.34;95456.53;5135056;27;20249;-71
2022/11/03 01:33:57;;;;;;;6.28;4.95;;;;;;;15.35;46.36;95449.00;5135337;27;20652;-71
2022/11/03 01:36:24;;;;;;;6.97;4.97;;;;;;;15.35;46.75;95449.81;5135983;27;20198;-71
2022/11/03 01:38:52;;;;;;;8.48;4.78;;;;;;;15.34;47.13;95444.63;5136208;27;20239;-71
2022/11/03 01:41:20;;;;;;;7.03;5.53;;;;;;;15.28;46.78;95449.69;5135166;28;20199;-71
2022/11/03 01:43:50;;;;;;;6.18;5.00;;;;;;;15.25;46.84;95449.66;5136169;28;20202;-71
2022/11/03 01:46:20;;;;;;;7.13;4.78;;;;;;;15.18;47.14;95453.13;5136061;28;20202;-71
2022/11/03 01:48:51;;;;;;;6.82;5.20;;;;;;;15.13;47.34;95448.69;5136182;27;20187;-71
2022/11/03 01:51:20;;;;;;;8.52;5.90;;;;;;;15.13;47.62;95451.47;5135083;28;20625;-71
2022/11/03 01:53:48;;;;;;;7.95;6.35;;;;;;;15.10;48.52;95451.41;5136104;28;20176;-71
2022/11/03 01:56:16;;;;;;;8.40;6.18;;;;;;;15.09;48.67;95450.59;5135437;28;20208;-71
2022/11/03 01:58:44;;;;;;;13.27;7.35;;;;;;;15.09;48.78;95452.59;5136100;28;20191;-71
2022/11/03 02:01:11;;;;;;;15.45;7.30;;;;;;;15.07;49.51;95457.69;5135095;28;20241;-72
2022/11/03 02:03:43;;;;;;;10.32;7.10;;;;;;;15.03;50.01;95454.91;5135100;28;20211;-71
2022/11/03 02:06:12;;;;;;;10.32;7.90;;;;;;;15.04;50.30;95459.25;5135074;28;20252;-71
2022/11/03 02:08:41;;;;;;;10.95;7.88;;;;;;;15.09;50.47;95458.13;5136039;27;20179;-71
2022/11/03 02:13:48;;;;;;;12.48;8.50;;;;;;;15.07;50.79;95461.31;5139462;27;20251;-71
2022/11/03 02:16:15;;;;;;;10.68;8.45;;;;;;;15.08;51.13;95462.09;5138722;27;20607;-71
2022/11/03 02:18:43;;;;;;;10.68;9.07;;;;;;;15.06;51.44;95465.22;5139703;27;20506;-71
2022/11/03 02:21:18;;;;;;;12.00;8.43;;;;;;;15.02;51.25;95460.81;5139578;27;20183;-71
2022/11/03 02:23:49;;;;;;;10.52;8.27;;;;;;;15.00;50.88;95457.63;5139917;27;20213;-71
2022/11/03 02:26:17;;;;;;;9.50;7.03;;;;;;;14.93;50.83;95458.28;5138714;27;20625;-71
2022/11/03 02:28:44;;;;;;;9.82;7.43;;;;;;;14.89;50.70;95460.22;5138867;27;20203;-71
2022/11/03 02:31:15;;;;;;;10.32;7.35;;;;;;;14.86;50.97;95450.63;5138648;27;20191;-71
2022/11/03 02:33:48;;;;;;;9.43;7.68;;;;;;;14.88;50.83;95462.16;5138721;27;20199;-71
2022/11/03 02:36:20;;;;;;;9.55;7.15;;;;;;;14.93;50.61;95459.09;5139747;27;20194;-71
2022/11/03 02:38:49;;;;;;;11.70;7.45;;;;;;;14.95;50.67;95455.94;5138347;27;20754;-71
2022/11/03 02:41:18;;;;;;;10.45;7.60;;;;;;;14.93;51.51;95453.53;5138496;27;20199;-71
2022/11/03 02:43:46;;;;;;;9.73;6.82;;;;;;;14.90;51.73;95445.94;5139502;27;20226;-71
2022/11/03 02:46:14;;;;;;;9.32;7.30;;;;;;;14.86;51.98;95447.84;5139367;27;20198;-71
2022/11/03 02:48:40;;;;;;;8.88;6.68;;;;;;;14.82;51.38;95452.56;5138469;27;20187;-72
2022/11/03 02:51:07;;;;;;;9.60;6.75;;;;;;;14.81;51.34;95458.47;5138869;27;20600;-72
2022/11/03 02:53:37;;;;;;;10.43;6.50;;;;;;;14.80;51.48;95452.13;5139534;27;20202;-71
2022/11/03 02:56:07;;;;;;;8.25;6.63;;;;;;;14.79;51.43;95455.28;5138914;27;20622;-71
2022/11/03 02:58:42;;;;;;;10.52;6.97;;;;;;;14.79;51.08;95450.50;5138496;27;20548;-71
2022/11/03 03:01:13;;;;;;;9.27;6.00;;;;;;;14.82;50.61;95455.34;5139097;27;20198;-71
2022/11/03 03:03:45;;;;;;;13.25;6.65;;;;;;;14.83;50.49;95453.34;5138942;27;20207;-72
2022/11/03 03:06:18;;;;;;;9.55;6.18;;;;;;;14.83;50.36;95454.16;5139044;27;20188;-73
2022/11/03 03:08:47;;;;;;;7.57;6.07;;;;;;;14.84;50.70;95454.94;5138967;27;20187;-73
2022/11/03 03:11:13;;;;;;;7.32;6.25;;;;;;;14.85;50.49;95451.81;5137929;27;20187;-73
2022/11/03 03:13:43;;;;;;;8.63;6.05;;;;;;;14.84;50.48;95452.97;5138168;27;20194;-72
2022/11/03 03:16:12;;;;;;;8.55;6.68;;;;;;;14.86;50.54;95450.63;5137877;27;20202;-72
2022/11/03 03:18:48;;;;;;;9.88;6.53;;;;;;;14.89;50.68;95444.34;5137902;27;20207;-72
2022/11/03 03:21:18;;;;;;;7.85;6.30;;;;;;;14.90;50.67;95453.47;5137794;27;20210;-72
2022/11/03 03:23:48;;;;;;;8.40;6.80;;;;;;;14.92;50.28;95451.13;5137756;27;20228;-73
2022/11/03 03:26:20;;;;;;;8.77;6.68;;;;;;;14.95;50.56;95455.94;5138289;27;20569;-72
2022/11/03 03:28:51;;;;;;;10.75;6.80;;;;;;;14.96;50.77;95454.78;5137944;27;20203;-72
2022/11/03 03:31:19;;;;;;;11.63;7.20;;;;;;;14.96;51.04;95454.78;5137157;27;20231;-73
2022/11/03 03:33:47;;;;;;;8.52;7.03;;;;;;;14.95;51.56;95450.38;5138020;27;20561;-73
2022/11/03 03:36:16;;;;;;;8.85;6.78;;;;;;;14.92;51.50;95449.16;5138512;27;20198;-72
2022/11/03 03:38:47;;;;;;;7.43;6.72;;;;;;;14.91;51.15;95444.75;5137401;27;20546;-72
2022/11/03 03:41:20;;;;;;;8.98;6.70;;;;;;;14.90;50.81;95450.69;5137331;27;20660;-71
2022/11/03 03:43:49;;;;;;;9.55;6.68;;;;;;;14.89;51.15;95449.09;5137546;27;20295;-72
2022/11/03 03:46:16;;;;;;;9.57;7.13;;;;;;;14.87;51.59;95449.47;5137641;27;20191;-72
2022/11/03 03:48:44;;;;;;;11.45;6.80;;;;;;;14.82;52.53;95454.53;5138238;27;20202;-72
2022/11/03 03:51:11;;;;;;;7.90;6.35;;;;;;;14.77;52.91;95449.28;5138069;27;20221;-71
2022/11/03 03:53:38;;;;;;;9.55;6.88;;;;;;;14.75;51.92;95455.22;5138302;27;20183;-71
2022/11/03 03:56:05;;;;;;;8.35;6.43;;;;;;;14.73;51.81;95460.31;5137928;27;20506;-71
2022/11/03 03:58:32;;;;;;;8.30;6.15;;;;;;;14.73;51.89;95449.22;5137008;27;20191;-71
2022/11/03 04:01:00;;;;;;;7.88;6.15;;;;;;;14.68;51.61;95443.97;5138038;27;20190;-72
2022/11/03 04:03:28;;;;;;;9.35;6.90;;;;;;;14.64;51.72;95462.56;5136907;27;20187;-71
2022/11/03 04:05:55;;;;;;;7.72;6.40;;;;;;;14.62;52.01;95453.78;5137408;27;20202;-71
2022/11/03 04:08:21;;;;;;;8.35;6.20;;;;;;;14.60;52.20;95456.94;5137820;27;20183;-71
2022/11/03 04:24:27;;;;;;;9.55;6.13;;;;;;;14.34;52.82;95456.78;5137338;27;20195;-71
2022/11/03 04:27:05;;;;;;;9.27;7.03;;;;;;;14.31;53.51;95458.34;5137442;27;20648;-72
2022/11/03 04:29:32;;;;;;;10.13;7.72;;;;;;;14.17;54.67;95452.53;5136434;27;20191;-72
2022/11/03 04:32:00;;;;;;;12.13;8.25;;;;;;;13.94;54.94;95450.50;5136404;27;20210;-72
2022/11/03 04:34:27;;;;;;;12.18;8.15;;;;;;;13.82;55.01;95444.28;5135874;27;20248;-72
2022/11/03 04:36:53;;;;;;;11.55;8.35;;;;;;;13.67;55.44;95445.97;5137327;27;20183;-72
2022/11/03 04:39:20;;;;;;;14.45;8.02;;;;;;;13.52;55.68;95442.09;5136855;27;20235;-71
2022/11/03 04:41:47;;;;;;;9.40;7.78;;;;;;;13.40;55.85;95445.78;5136802;27;20206;-71
2022/11/03 04:44:15;;;;;;;9.93;7.80;;;;;;;13.34;56.20;95446.44;5137539;27;20202;-71
2022/11/03 04:46:44;;;;;;;12.27;8.20;;;;;;;13.33;56.21;95448.41;5136181;27;20198;-71
2022/11/03 04:49:16;;;;;;;13.43;8.00;;;;;;;13.29;56.61;95444.75;5136948;27;20187;-71
2022/11/03 04:51:43;;;;;;;12.77;8.40;;;;;;;13.24;56.58;95456.09;5136086;27;20206;-71
2022/11/03 04:54:14;;;;;;;9.88;8.05;;;;;;;13.22;56.80;95453.66;5137050;27;20186;-72
2022/11/03 04:56:40;;;;;;;10.30;8.02;;;;;;;13.18;57.05;95450.00;5136692;27;20185;-71
2022/11/03 04:59:11;;;;;;;12.65;8.85;;;;;;;13.14;57.10;95454.66;5136672;27;20187;-73
2022/11/03 05:01:38;;;;;;;9.82;8.27;;;;;;;13.11;57.49;95460.09;5136303;27;20210;-73
2022/11/03 05:04:08;;;;;;;13.05;8.82;;;;;;;13.04;57.71;95457.19;5136725;27;20198;-72
2022/11/03 05:06:37;;;;;;;12.80;9.07;;;;;;;12.99;57.78;95461.81;5136756;27;20210;-72
2022/11/03 05:09:12;;;;;;;14.30;9.88;;;;;;;12.95;57.89;95451.81;5135782;27;20496;-72
2022/11/03 05:11:42;;;;;;;16.80;9.63;;;;;;;12.94;58.00;95453.78;5136099;27;20194;-73
2022/11/03 05:14:15;;;;;;;12.57;9.32;;;;;;;12.92;57.93;95458.06;5136184;27;20194;-72
2022/11/03 05:16:42;;;;;;;15.77;9.25;;;;;;;12.92;58.33;95463.59;5136430;27;20198;-72
2022/11/03 05:19:13;;;;;;;12.40;9.32;;;;;;;12.84;58.75;95457.09;5136074;27;20213;-72
2022/11/03 05:21:42;;;;;;;16.80;11.25;;;;;;;12.69;59.54;95460.69;5136758;27;20240;-72
2022/11/03 05:24:12;;;;;;;16.85;10.00;;;;;;;12.61;59.24;95461.66;5136033;27;20670;-72
2022/11/03 05:26:39;;;;;;;15.32;10.90;;;;;;;12.60;59.23;95458.09;5136482;27;20187;-72
2022/11/03 05:29:16;;;;;;;15.38;10.20;;;;;;;12.62;59.07;95468.78;5135493;27;20186;-72
2022/11/03 05:31:44;;;;;;;22.67;10.88;;;;;;;12.64;59.35;95475.59;5135308;27;20281;-72
2022/11/03 05:34:27;;;;;;;16.23;9.90;;;;;;;12.68;59.34;95470.94;5135826;27;20198;-72
2022/11/03 05:36:55;;;;;;;14.75;9.52;;;;;;;12.73;59.51;95472.63;5136138;27;20248;-72
2022/11/03 05:39:29;;;;;;;17.15;10.88;;;;;;;12.75;59.10;95473.09;5136037;27;20238;-72
2022/11/03 05:41:56;;;;;;;13.35;10.02;;;;;;;12.76;59.72;95491.31;5136448;27;20183;-71
2022/11/03 05:44:28;;;;;;;15.35;10.45;;;;;;;12.75;59.96;95486.94;5135341;28;20218;-71
2022/11/03 05:46:55;;;;;;;25.63;12.35;;;;;;;12.70;60.29;95485.22;5140454;27;20199;-71
2022/11/03 05:49:22;;;;;;;18.35;11.50;;;;;;;12.72;59.90;95495.94;5142715;27;20206;-71
2022/11/03 05:51:50;;;;;;;20.27;12.13;;;;;;;12.76;60.14;95497.63;5142989;27;20267;-71
2022/11/03 05:54:22;;;;;;;22.70;12.60;;;;;;;12.82;59.65;95497.34;5142267;27;20191;-71
2022/11/03 05:56:49;;;;;;;21.00;11.68;;;;;;;12.87;59.62;95499.88;5142781;27;20183;-71
2022/11/03 05:59:20;;;;;;;15.90;10.88;;;;;;;12.91;59.85;95506.31;5142658;27;20189;-71
2022/11/03 06:01:48;;;;;;;22.67;11.65;;;;;;;12.94;59.90;95503.63;5143140;27;20197;-71
2022/11/03 06:04:19;;;;;;;18.33;11.95;;;;;;;13.00;60.15;95510.50;5142316;27;20205;-71
2022/11/03 06:06:51;;;;;;;22.52;12.18;;;;;;;13.04;60.10;95512.56;5142235;27;20199;-71
2022/11/03 06:09:21;;;;;;;18.20;11.73;;;;;;;13.02;59.59;95516.47;5141796;27;20210;-71
2022/11/03 06:11:49;;;;;;;21.38;12.00;;;;;;;13.05;59.72;95523.28;5142247;27;20194;-74
2022/11/03 06:14:19;;;;;;;16.25;11.35;;;;;;;13.11;59.39;95519.09;5141391;27;20426;-72
2022/11/03 06:16:48;;;;;;;21.30;10.63;;;;;;;13.20;59.40;95524.44;5142507;27;20201;-72
2022/11/03 06:19:21;;;;;;;20.65;11.25;;;;;;;13.29;59.16;95527.84;5142778;27;20183;-72
2022/11/03 06:21:50;;;;;;;22.40;12.10;;;;;;;13.30;59.32;95523.13;5142464;27;20183;-72
2022/11/03 06:24:20;;;;;;;20.73;11.18;;;;;;;13.35;59.70;95525.59;5141307;27;20510;-72
2022/11/03 06:26:47;;;;;;;23.77;12.60;;;;;;;13.40;59.60;95525.34;5142707;27;20225;-71
2022/11/03 06:29:15;;;;;;;17.42;12.35;;;;;;;13.51;59.17;95525.56;5141842;27;20215;-72
2022/11/03 06:31:43;;;;;;;21.73;11.95;;;;;;;13.62;58.54;95532.97;5142444;27;20590;-72
2022/11/03 06:34:23;;;;;;;18.33;11.52;;;;;;;13.71;58.10;95541.88;5141955;27;20233;-72
2022/11/03 06:36:49;;;;;;;18.77;11.27;;;;;;;13.86;57.98;95543.00;5142423;27;20616;-72
2022/11/03 06:39:23;;;;;;;16.20;11.20;;;;;;;14.00;57.86;95536.16;5142625;27;20231;-72
2022/11/03 06:41:51;;;;;;;19.10;11.93;;;;;;;14.11;57.94;95534.41;5142794;27;20191;-72
2022/11/03 06:44:22;;;;;;;15.73;10.40;;;;;;;14.21;57.54;95537.41;5142034;27;20191;-72
2022/11/03 06:46:49;;;;;;;16.30;11.55;;;;;;;14.32;57.40;95539.63;5141594;27;20198;-72
2022/11/03 06:49:27;;;;;;;16.70;11.52;;;;;;;14.40;57.20;95542.16;5142452;27;20190;-72
2022/11/03 06:51:54;;;;;;;19.50;12.13;;;;;;;14.49;56.96;95535.56;5141623;27;20213;-72
2022/11/03 06:54:21;;;;;;;14.88;11.25;;;;;;;14.56;56.90;95538.50;5141691;27;20203;-72
2022/11/03 06:56:49;;;;;;;16.27;11.77;;;;;;;14.63;56.86;95539.47;5141551;27;20198;-72
2022/11/03 06:59:16;;;;;;;17.77;12.45;;;;;;;14.74;57.15;95544.41;5137368;27;20195;-72
2022/11/03 07:01:46;;;;;;;18.70;11.85;;;;;;;14.80;56.51;95546.53;5138715;27;20195;-72
2022/11/03 07:04:15;;;;;;;17.10;11.57;;;;;;;14.87;56.54;95546.66;5138842;27;20220;-72
2022/11/03 07:06:43;;;;;;;17.65;12.00;;;;;;;14.94;56.46;95537.66;5139116;27;20206;-72
2022/11/03 07:09:14;;;;;;;15.27;12.10;;;;;;;15.06;56.13;95534.69;5138195;27;20197;-72
2022/11/03 07:11:46;;;;;;;16.02;13.25;;;;;;;15.14;55.90;95530.88;5138947;27;20202;-72
2022/11/03 07:14:17;;;;;;;15.85;12.80;;;;;;;15.21;56.07;95527.38;5138405;27;20187;-72
2022/11/03 07:16:45;;;;;;;14.80;11.68;;;;;;;15.27;55.71;95527.88;5137949;27;20191;-72
2022/11/03 07:19:18;;;;;;;21.25;12.82;;;;;;;15.35;55.93;95524.84;5137806;27;20206;-72
2022/11/03 07:21:46;;;;;;;18.45;12.05;;;;;;;15.40;55.98;95529.31;5138206;27;20203;-72
2022/11/03 07:24:16;;;;;;;16.60;11.98;;;;;;;15.52;55.85;95526.31;5138138;27;20191;-72
2022/11/03 07:26:43;;;;;;;15.75;12.20;;;;;;;15.63;55.15;95521.72;5137930;27;20211;-72
2022/11/03 07:29:16;;;;;;;19.13;12.25;;;;;;;15.75;54.88;95528.25;5138635;27;20198;-72
2022/11/03 07:31:43;;;;;;;15.13;12.25;;;;;;;15.85;54.91;95524.84;5138810;27;20187;-72
2022/11/03 07:34:14;;;;;;;15.65;11.82;;;;;;;15.97;54.21;95524.59;5137528;27;20199;-72
2022/11/03 07:36:41;;;;;;;14.75;11.18;;;;;;;16.03;53.75;95528.66;5137756;27;20284;-72
2022/11/03 07:39:11;;;;;;;14.18;11.02;;;;;;;16.18;54.02;95514.94;5138018;27;20670;-72
2022/11/03 07:41:38;;;;;;;14.27;11.20;;;;;;;16.22;54.01;95513.00;5137443;27;20210;-72
2022/11/03 07:44:08;;;;;;;16.00;11.95;;;;;;;16.25;54.08;95515.03;5137101;27;20191;-73
2022/11/03 07:46:36;;;;;;;16.45;11.70;;;;;;;16.25;54.22;95510.25;5138282;27;20218;-73
2022/11/03 07:49:03;;;;;;;15.93;12.00;;;;;;;16.27;53.99;95516.25;5138114;27;20198;-72
2022/11/03 07:51:31;;;;;;;14.35;11.02;;;;;;;16.31;53.76;95521.88;5137154;27;20537;-72
2022/11/03 07:54:04;;;;;;;14.77;11.75;;;;;;;16.37;53.53;95525.91;5137552;27;20187;-72
2022/11/03 07:56:34;;;;;;;17.08;12.48;;;;;;;16.41;54.55;95517.59;5137845;27;20175;-72
2022/11/03 07:59:06;;;;;;;15.80;13.23;;;;;;;16.45;54.46;95505.34;5137263;27;20207;-72
2022/11/03 08:01:36;;;;;;;19.23;13.75;;;;;;;16.51;53.52;95514.94;5137638;27;20251;-72
2022/11/03 08:04:05;;;;;;;17.77;12.90;;;;;;;16.54;53.82;95507.81;5137166;27;20580;-72
2022/11/03 08:06:32;;;;;;;16.52;13.38;;;;;;;16.53;53.24;95509.00;5137051;27;20252;-72
2022/11/03 08:08:59;;;;;;;19.20;13.57;;;;;;;16.56;53.70;95502.69;5136919;27;20190;-72
2022/11/03 08:11:26;;;;;;;18.27;13.27;;;;;;;16.59;53.84;95499.94;5136592;27;20287;-71
2022/11/03 08:13:53;;;;;;;18.35;13.10;;;;;;;16.65;53.07;95491.22;5137967;27;20206;-72
2022/11/03 08:16:21;;;;;;;16.75;13.02;;;;;;;16.72;53.11;95497.66;5137726;27;20191;-72
2022/11/03 08:18:50;;;;;;;16.30;12.57;;;;;;;16.76;52.90;95490.19;5137763;27;20278;-72
2022/11/03 08:21:17;;;;;;;18.85;13.82;;;;;;;16.88;53.79;95491.88;5137611;27;20191;-72
2022/11/03 08:23:43;;;;;;;16.88;13.23;;;;;;;16.97;53.63;95488.78;5137361;27;20565;-72
2022/11/03 08:26:11;;;;;;;16.23;12.57;;;;;;;17.06;52.79;95492.03;5137043;27;20219;-72
2022/11/03 08:28:38;;;;;;;15.10;12.00;;;;;;;17.10;52.37;95487.28;5137403;27;20194;-72
2022/11/03 08:31:04;;;;;;;15.57;11.73;;;;;;;17.15;52.46;95475.00;5136781;27;20206;-72
2022/11/03 08:33:33;;;;;;;14.35;11.15;;;;;;;17.26;51.81;95481.47;5137383;27;20191;-72
2022/11/03 08:36:03;;;;;;;15.95;11.70;;;;;;;17.31;51.46;95479.13;5136585;27;20209;-72
2022/11/03 08:38:30;;;;;;;15.25;11.90;;;;;;;17.36;51.78;95475.19;5137196;27;20358;-72
2022/11/03 08:40:58;;;;;;;16.63;11.20;;;;;;;17.43;50.95;95474.41;5137179;27;20205;-72
2022/11/03 08:43:25;;;;;;;15.93;12.73;;;;;;;17.45;50.81;95478.41;5135952;27;20191;-72
2022/11/03 08:45:53;;;;;;;16.65;12.43;;;;;;;17.52;50.76;95484.06;5136009;27;20210;-72
2022/11/03 08:48:20;;;;;;;14.70;11.00;;;;;;;17.58;50.46;95478.13;5137091;27;20191;-72
2022/11/03 08:50:49;;;;;;;14.98;11.48;;;;;;;17.67;51.00;95481.38;5137143;27;20214;-72
2022/11/03 08:53:17;;;;;;;18.95;12.20;;;;;;;17.77;50.58;95478.66;5136882;27;20195;-72
2022/11/03 08:55:44;;;;;;;16.35;12.52;;;;;;;17.81;50.16;95475.91;5135992;27;20199;-72
2022/11/03 08:58:11;;;;;;;14.27;10.82;;;;;;;17.86;50.04;95481.09;5136126;27;20221;-72
2022/11/03 09:00:38;;;;;;;16.67;12.23;;;;;;;17.90;50.84;95475.53;5135963;27;20205;-73
2022/11/03 09:03:05;;;;;;;13.25;10.90;;;;;;;17.93;50.54;95474.75;5137135;27;20190;-73
2022/11/03 09:05:33;;;;;;;17.33;12.05;;;;;;;17.99;49.91;95470.41;5136830;27;20203;-72
2022/11/03 09:08:00;;;;;;;13.90;10.98;;;;;;;18.00;49.35;95470.00;5135853;27;20195;-72
2022/11/03 09:10:28;;;;;;;16.38;11.43;;;;;;;18.11;50.84;95469.28;5136664;27;20202;-72
2022/11/03 09:12:55;;;;;;;13.18;11.60;;;;;;;18.27;50.92;95473.34;5136701;27;20247;-71
2022/11/03 09:15:22;;;;;;;15.00;11.25;;;;;;;18.33;49.50;95472.94;5136581;27;20183;-71
2022/11/03 09:17:48;;;;;;;15.32;10.85;;;;;;;18.42;49.34;95465.00;5136697;27;20192;-71
2022/11/03 09:20:16;;;;;;;12.80;10.18;;;;;;;18.42;48.28;95453.84;5135628;27;20198;-71
2022/11/03 09:22:42;;;;;;;14.57;10.75;;;;;;;18.50;48.99;95447.88;5136416;27;20217;-71
2022/11/03 09:25:10;;;;;;;15.25;10.85;;;;;;;18.56;49.38;95451.09;5135468;27;20195;-71
2022/11/03 09:27:38;;;;;;;15.75;10.70;;;;;;;18.63;49.91;95451.09;5136619;27;20197;-72
2022/11/03 09:30:06;;;;;;;16.08;10.63;;;;;;;18.67;48.87;95443.53;5136471;27;20188;-72
2022/11/03 09:32:33;;;;;;;16.98;10.75;;;;;;;18.74;49.58;95448.38;5136408;27;20194;-71
2022/11/03 09:35:00;;;;;;;16.00;11.30;;;;;;;18.79;48.43;95447.97;5135323;27;20298;-71
2022/11/03 09:37:28;;;;;;;16.55;10.63;;;;;;;18.85;48.85;95442.78;5136228;27;20199;-71
2022/11/03 09:39:58;;;;;;;12.32;9.60;;;;;;;18.89;47.65;95438.81;5135133;27;20242;-71
2022/11/03 09:42:25;;;;;;;13.07;10.15;;;;;;;18.93;46.82;95430.41;5135449;27;20290;-71
2022/11/03 09:44:55;;;;;;;13.05;10.02;;;;;;;18.97;48.07;95434.00;5136251;27;20190;-71
2022/11/03 09:47:24;;;;;;;14.15;10.20;;;;;;;19.05;47.75;95420.84;5136119;27;20207;-71
2022/11/03 09:49:51;;;;;;;14.25;10.50;;;;;;;19.14;47.94;95426.84;5135926;27;20195;-71
2022/11/03 09:52:21;;;;;;;15.07;10.20;;;;;;;19.20;46.77;95423.22;5135427;28;20195;-71
2022/11/03 09:54:48;;;;;;;12.90;9.73;;;;;;;19.24;46.86;95415.66;5136258;27;20210;-71
2022/11/03 09:57:16;;;;;;;15.70;11.18;;;;;;;19.22;47.12;95420.03;5135071;28;20191;-71
2022/11/03 09:59:43;;;;;;;14.05;10.38;;;;;;;19.23;46.59;95413.25;5135644;28;20203;-71
2022/11/03 10:02:19;;;;;;;14.00;10.23;;;;;;;19.28;46.51;95415.66;5135636;28;20258;-71
2022/11/03 10:04:46;;;;;;;14.73;9.82;;;;;;;19.36;46.91;95400.44;5135021;28;20198;-71
2022/11/03 10:07:13;;;;;;;14.07;10.10;;;;;;;19.44;45.83;95404.03;5134992;28;20211;-71
2022/11/03 10:09:44;;;;;;;14.20;9.75;;;;;;;19.45;46.28;95398.03;5136055;27;20175;-71
2022/11/03 10:12:11;;;;;;;13.63;9.50;;;;;;;19.47;46.32;95390.03;5135460;28;20199;-71
2022/11/03 10:14:39;;;;;;;14.30;9.35;;;;;;;19.53;46.41;95393.22;5135865;28;20171;-71
2022/11/03 10:17:06;;;;;;;11.63;8.50;;;;;;;19.56;45.50;95388.81;5134965;28;20202;-72
2022/11/03 10:19:35;;;;;;;12.82;8.77;;;;;;;19.51;44.05;95387.22;5135227;28;20194;-72
2022/11/03 10:22:01;;;;;;;11.80;8.48;;;;;;;19.52;44.61;95386.03;5135928;28;20183;-72
2022/11/03 10:24:28;;;;;;;13.38;7.80;;;;;;;19.55;43.87;95376.03;5135607;27;20187;-72
2022/11/03 10:26:55;;;;;;;12.05;8.40;;;;;;;19.56;43.27;95372.03;5134788;28;20218;-72
2022/11/03 10:29:23;;;;;;;13.40;9.52;;;;;;;19.60;43.71;95372.81;5135722;28;20309;-71
2022/11/03 10:31:52;;;;;;;13.82;8.50;;;;;;;19.63;44.36;95367.25;5134801;27;20192;-71
2022/11/03 10:34:34;;;;;;;11.02;8.00;;;;;;;19.70;43.84;95353.22;5138086;27;20602;-71
2022/11/03 10:37:19;;;;;;;12.90;7.55;;;;;;;19.74;43.15;95350.41;5138848;27;20226;-71
2022/11/03 10:39:46;;;;;;;11.57;6.68;;;;;;;19.75;41.89;95349.19;5138203;27;20226;-71
2022/11/03 10:42:19;;;;;;;10.65;5.97;;;;;;;19.77;41.92;95346.00;5139095;27;20225;-71
2022/11/03 10:44:46;;;;;;;8.07;5.88;;;;;;;19.78;40.30;95340.00;5138391;27;20244;-71
2022/11/03 10:47:23;;;;;;;9.20;5.70;;;;;;;19.84;40.31;95332.00;5139089;27;20701;-71
2022/11/03 10:49:50;;;;;;;8.15;5.13;;;;;;;19.90;39.90;95331.16;5138937;27;20201;-71
2022/11/03 10:52:21;;;;;;;6.95;5.00;;;;;;;19.98;40.05;95325.53;5138694;27;20191;-71
2022/11/03 10:54:48;;;;;;;7.90;5.68;;;;;;;20.03;39.01;95319.50;5139247;27;20258;-71
2022/11/03 10:57:16;;;;;;;8.00;5.40;;;;;;;20.06;39.10;95316.69;5137896;27;20238;-71
2022/11/03 10:59:45;;;;;;;8.38;5.72;;;;;;;20.14;39.62;95320.22;5138463;27;20191;-71
2022/11/03 11:02:17;;;;;;;6.78;4.50;;;;;;;20.16;37.93;95315.81;5139361;27;20179;-71
2022/11/03 11:04:44;;;;;;;9.98;5.57;;;;;;;20.22;39.26;95312.59;5138840;27;20182;-71
2022/11/03 11:07:23;;;;;;;8.10;5.55;;;;;;;20.22;39.19;95304.97;5137628;27;20210;-71
2022/11/03 11:09:50;;;;;;;12.55;6.43;;;;;;;20.26;39.46;95291.78;5139020;27;20183;-71
2022/11/03 11:12:19;;;;;;;8.73;6.28;;;;;;;20.35;40.21;95291.31;5138296;27;20199;-71
2022/11/03 11:14:54;;;;;;;9.80;5.68;;;;;;;20.42;38.95;95292.03;5139081;27;20183;-72
2022/11/03 11:17:43;;;;;;;9.63;6.03;;;;;;;20.47;38.85;95290.81;5138537;27;20205;-71
2022/11/03 11:20:30;;;;;;;10.68;5.40;;;;;;;20.53;38.91;95280.78;5132037;27;20210;-71
2022/11/03 11:23:45;;;;;;;11.15;6.85;;;;;;;20.58;38.77;95277.53;5137890;27;20191;-71
2022/11/03 11:26:18;;;;;;;10.57;6.82;;;;;;;20.62;38.80;95283.91;5138139;27;20211;-71
2022/11/03 11:28:46;;;;;;;10.07;5.85;;;;;;;20.67;39.00;95275.06;5137797;27;20198;-71
2022/11/03 11:31:37;;;;;;;7.95;6.07;;;;;;;20.72;38.39;95265.41;5138549;27;20266;-71
2022/11/03 11:34:40;;;;;;;8.45;5.93;;;;;;;20.72;38.62;95267.41;5127704;27;20530;-71
2022/11/03 11:37:32;;;;;;;8.85;6.10;;;;;;;20.78;37.83;95260.16;5137587;27;20199;-71
2022/11/03 11:40:01;;;;;;;8.95;6.00;;;;;;;20.79;38.17;95259.75;5138454;27;20234;-71
2022/11/03 11:42:28;;;;;;;7.40;6.20;;;;;;;20.76;38.41;95257.75;5137081;27;20517;-71
2022/11/03 11:45:05;;;;;;;10.75;6.95;;;;;;;20.78;39.08;95252.56;5137139;27;20537;-71
2022/11/03 11:47:49;;;;;;;10.75;6.32;;;;;;;20.82;39.11;95246.91;5137288;27;20278;-71
2022/11/03 11:50:30;;;;;;;9.85;5.90;;;;;;;20.86;38.37;95247.66;5137483;27;20186;-71
2022/11/03 11:53:11;;;;;;;10.38;5.68;;;;;;;20.84;38.26;95241.66;5137303;27;20195;-71
2022/11/03 11:55:44;;;;;;;10.30;5.90;;;;;;;20.85;38.11;95237.69;5136976;27;20229;-71
2022/11/03 11:58:19;;;;;;;7.63;5.07;;;;;;;20.84;36.92;95228.47;5137072;27;20199;-71